createdAt,value
2019-05-25T00:00:21.736Z,99235.03
2019-05-25T00:02:56.408Z,99228.83
2019-05-25T00:05:30.555Z,99225.28
2019-05-25T00:08:04.924Z,99231.53
2019-05-25T00:10:39.014Z,99234.32
2019-05-25T00:13:13.129Z,99231.11
2019-05-25T00:15:47.213Z,99231.56
2019-05-25T00:18:20.193Z,99231.20
2019-05-25T00:20:54.030Z,99230.41
2019-05-25T00:23:28.252Z,99236.46
2019-05-25T00:26:02.048Z,99233.08
2019-05-25T00:28:35.723Z,99230.60
2019-05-25T00:31:09.847Z,99228.33
2019-05-25T00:33:43.602Z,99227.00
2019-05-25T00:36:17.268Z,99226.56
2019-05-25T00:38:51.413Z,99223.96
2019-05-25T00:41:25.115Z,99226.36
2019-05-25T00:43:59.310Z,99224.06
2019-05-25T00:46:33.604Z,99223.27
2019-05-25T00:49:07.047Z,99220.33
2019-05-25T00:51:40.292Z,99222.75
2019-05-25T00:54:27.083Z,99217.80
2019-05-25T00:56:49.390Z,99220.38
2019-05-25T00:59:23.462Z,99215.09
2019-05-25T01:01:57.705Z,99219.82
2019-05-25T01:04:31.283Z,99219.33
2019-05-25T01:07:04.683Z,99220.76
2019-05-25T01:09:38.935Z,99221.18
2019-05-25T01:12:13.634Z,99213.63
2019-05-25T01:14:47.650Z,99213.12
2019-05-25T01:17:21.894Z,99206.89
2019-05-25T01:19:56.575Z,99207.45
2019-05-25T01:22:30.370Z,99209.99
2019-05-25T01:25:04.540Z,99211.03
2019-05-25T01:27:37.887Z,99208.98
2019-05-25T01:30:11.188Z,99204.54
2019-05-25T01:32:44.384Z,99204.95
2019-05-25T01:35:18.545Z,99205.66
2019-05-25T01:37:52.622Z,99202.22
2019-05-25T01:40:25.893Z,99204.59
2019-05-25T01:43:00.070Z,99205.63
2019-05-25T01:45:34.261Z,99203.84
2019-05-25T01:48:08.345Z,99195.06
2019-05-25T01:50:42.561Z,99199.36
2019-05-25T01:53:16.260Z,99201.96
2019-05-25T01:55:50.050Z,99201.20
2019-05-25T01:58:24.207Z,99205.59
2019-05-25T02:00:58.423Z,99208.00
2019-05-25T02:03:32.125Z,99208.17
2019-05-25T02:06:05.933Z,99203.86
2019-05-25T02:08:39.276Z,99202.86
2019-05-25T02:11:13.483Z,99204.39
2019-05-25T02:13:47.123Z,99207.33
2019-05-25T02:16:21.286Z,99208.83
2019-05-25T02:18:55.452Z,99215.18
2019-05-25T02:21:29.783Z,99215.87
2019-05-25T02:24:03.551Z,99214.31
2019-05-25T02:26:37.707Z,99215.82
2019-05-25T02:29:11.936Z,99213.13
2019-05-25T02:31:45.505Z,99214.11
2019-05-25T02:34:19.754Z,99215.39
2019-05-25T02:36:53.473Z,99212.91
2019-05-25T02:39:27.565Z,99213.16
2019-05-25T02:42:00.709Z,99215.34
2019-05-25T02:44:34.846Z,99217.13
2019-05-25T02:47:08.126Z,99215.75
2019-05-25T02:49:41.829Z,99215.41
2019-05-25T02:52:16.080Z,99217.98
2019-05-25T02:54:49.444Z,99220.86
2019-05-25T02:57:23.489Z,99223.27
2019-05-25T02:59:57.228Z,99224.60
2019-05-25T03:02:31.351Z,99229.47
2019-05-25T03:05:04.270Z,99219.94
2019-05-25T03:07:39.337Z,99222.91
2019-05-25T03:10:12.188Z,99221.50
2019-05-25T03:12:52.381Z,99222.56
2019-05-25T03:15:26.079Z,99225.42
2019-05-25T03:17:59.356Z,99229.70
2019-05-25T03:20:32.684Z,99230.02
2019-05-25T03:23:06.808Z,99233.65
2019-05-25T03:25:49.634Z,99228.34
2019-05-25T03:28:16.979Z,99232.57
2019-05-25T03:30:51.167Z,99228.66
2019-05-25T03:33:24.489Z,99235.52
2019-05-25T03:35:58.511Z,99235.27
2019-05-25T03:38:32.796Z,99232.16
2019-05-25T03:41:06.422Z,99233.91
2019-05-25T03:43:39.992Z,99230.16
2019-05-25T03:46:13.276Z,99231.59
2019-05-25T03:48:46.562Z,99225.97
2019-05-25T03:51:20.739Z,99231.34
2019-05-25T03:53:54.174Z,99227.45
2019-05-25T03:56:28.538Z,99232.80
2019-05-25T03:59:02.293Z,99226.83
2019-05-25T04:01:35.646Z,99230.75
2019-05-25T04:04:08.812Z,99224.03
2019-05-25T04:06:42.921Z,99226.79
2019-05-25T04:09:16.953Z,99227.76
2019-05-25T04:11:50.634Z,99229.82
2019-05-25T04:14:24.461Z,99229.50
2019-05-25T04:16:58.553Z,99236.34
2019-05-25T04:19:32.796Z,99240.76
2019-05-25T04:22:06.552Z,99230.60
2019-05-25T04:24:40.792Z,99233.32
2019-05-25T04:27:14.448Z,99233.97
2019-05-25T04:29:48.714Z,99236.98
2019-05-25T04:32:22.957Z,99237.82
2019-05-25T04:34:57.276Z,99241.59
2019-05-25T04:37:30.467Z,99241.59
2019-05-25T04:40:03.694Z,99248.73
2019-05-25T04:42:36.482Z,99240.42
2019-05-25T04:45:11.948Z,99239.86
2019-05-25T04:47:45.543Z,99239.05
2019-05-25T04:50:20.503Z,99242.59
2019-05-25T04:52:54.742Z,99237.20
2019-05-25T04:55:28.805Z,99235.16
2019-05-25T04:58:02.841Z,99234.38
2019-05-25T05:00:36.135Z,99238.28
2019-05-25T05:03:10.446Z,99236.03
2019-05-25T05:05:44.689Z,99240.52
2019-05-25T05:08:18.955Z,99238.41
2019-05-25T05:10:53.099Z,99242.62
2019-05-25T05:13:27.117Z,99243.58
2019-05-25T05:16:00.715Z,99247.42
2019-05-25T05:18:34.856Z,99247.08
2019-05-25T05:21:08.520Z,99243.59
2019-05-25T05:23:42.771Z,99250.41
2019-05-25T05:26:16.958Z,99245.97
2019-05-25T05:28:51.052Z,99254.23
2019-05-25T05:31:24.584Z,99247.95
2019-05-25T05:33:58.199Z,99248.89
2019-05-25T05:36:33.088Z,99249.52
2019-05-25T05:39:08.457Z,99252.84
2019-05-25T05:41:43.484Z,99248.29
2019-05-25T05:44:20.202Z,99253.17
2019-05-25T05:46:57.347Z,99252.73
2019-05-25T05:49:32.500Z,99256.48
2019-05-25T05:52:07.340Z,99256.26
2019-05-25T05:54:44.432Z,99261.87
2019-05-25T05:57:17.358Z,99264.75
2019-05-25T05:59:51.523Z,99254.92
2019-05-25T06:02:25.680Z,99250.09
2019-05-25T06:04:59.938Z,99253.77
2019-05-25T06:07:34.441Z,99249.36
2019-05-25T06:10:10.025Z,99245.95
2019-05-25T06:12:44.123Z,99247.69
2019-05-25T06:15:18.944Z,99245.97
2019-05-25T06:17:53.573Z,99244.36
2019-05-25T06:20:27.915Z,99241.61
2019-05-25T06:23:03.050Z,99244.25
2019-05-25T06:25:37.282Z,99238.80
2019-05-25T06:28:10.414Z,99240.46
2019-05-25T06:30:44.316Z,99243.23
2019-05-25T06:33:17.946Z,99247.81
2019-05-25T06:35:51.768Z,99248.95
2019-05-25T06:38:26.287Z,99248.61
2019-05-25T06:41:00.002Z,99252.86
2019-05-25T06:43:34.297Z,99246.67
2019-05-25T06:46:08.082Z,99247.17
2019-05-25T06:48:41.900Z,99244.58
2019-05-25T06:51:16.157Z,99241.64
2019-05-25T06:53:49.401Z,99244.20
2019-05-25T06:56:23.516Z,99248.85
2019-05-25T06:58:57.777Z,99248.72
2019-05-25T07:01:31.481Z,99257.02
2019-05-25T07:04:05.174Z,99255.13
2019-05-25T07:06:39.373Z,99250.85
2019-05-25T07:09:12.321Z,99257.70
2019-05-25T07:11:45.684Z,99252.78
2019-05-25T07:14:19.973Z,99254.95
2019-05-25T07:16:54.090Z,99257.11
2019-05-25T07:19:28.178Z,99270.26
2019-05-25T07:22:02.317Z,99264.97
2019-05-25T07:24:36.539Z,99262.25
2019-05-25T07:27:10.845Z,99259.47
2019-05-25T07:29:44.526Z,99260.70
2019-05-25T07:32:18.814Z,99262.77
2019-05-25T07:34:52.602Z,99256.53
2019-05-25T07:37:26.741Z,99265.96
2019-05-25T07:40:00.525Z,99266.70
2019-05-25T07:42:34.621Z,99266.20
2019-05-25T07:45:09.267Z,99261.50
2019-05-25T07:47:43.007Z,99263.66
2019-05-25T07:50:17.332Z,99271.80
2019-05-25T07:52:50.131Z,99268.80
2019-05-25T07:55:24.415Z,99267.52
2019-05-25T07:57:56.775Z,99273.25
2019-05-25T08:00:30.078Z,99266.14
2019-05-25T08:03:03.940Z,99266.62
2019-05-25T08:05:38.125Z,99273.39
2019-05-25T08:08:11.876Z,99265.36
2019-05-25T08:10:46.096Z,99270.55
2019-05-25T08:13:19.916Z,99274.58
2019-05-25T08:15:52.796Z,99273.88
2019-05-25T08:18:25.735Z,99270.77
2019-05-25T08:20:58.636Z,99271.48
2019-05-25T08:23:31.215Z,99264.98
2019-05-25T08:26:03.668Z,99270.00
2019-05-25T08:28:37.478Z,99267.05
2019-05-25T08:31:09.955Z,99264.27
2019-05-25T08:33:42.339Z,99268.72
2019-05-25T08:36:14.813Z,99267.78
2019-05-25T08:38:48.111Z,99265.23
2019-05-25T08:41:21.361Z,99267.62
2019-05-25T08:43:54.211Z,99266.12
2019-05-25T08:46:27.097Z,99266.79
2019-05-25T08:49:00.042Z,99266.06
2019-05-25T08:51:32.902Z,99264.47
2019-05-25T08:54:07.287Z,99269.66
2019-05-25T08:56:41.416Z,99274.77
2019-05-25T08:59:14.818Z,99272.34
2019-05-25T09:01:47.721Z,99269.97
2019-05-25T09:04:20.954Z,99272.48
2019-05-25T09:06:53.855Z,99279.02
2019-05-25T09:09:27.245Z,99275.13
2019-05-25T09:11:59.694Z,99279.59
2019-05-25T09:14:33.638Z,99285.31
2019-05-25T09:17:06.995Z,99283.56
2019-05-25T09:19:41.242Z,99279.66
2019-05-25T09:22:15.475Z,99274.30
2019-05-25T09:24:49.742Z,99276.02
2019-05-25T09:27:23.524Z,99279.66
2019-05-25T09:29:57.816Z,99275.09
2019-05-25T09:32:31.535Z,99275.91
2019-05-25T09:35:05.211Z,99271.80
2019-05-25T09:37:39.347Z,99278.16
2019-05-25T09:40:12.793Z,99279.23
2019-05-25T09:42:47.226Z,99281.02
2019-05-25T09:45:21.673Z,99285.03
2019-05-25T09:47:54.972Z,99282.20
2019-05-25T09:50:28.758Z,99285.55
2019-05-25T09:53:01.974Z,99285.98
2019-05-25T09:55:36.268Z,99292.13
2019-05-25T09:58:09.846Z,99297.00
2019-05-25T10:00:43.448Z,99292.95
2019-05-25T10:03:17.720Z,99286.52
2019-05-25T10:05:51.697Z,99291.09
2019-05-25T10:08:25.705Z,99291.98
2019-05-25T10:11:00.050Z,99293.17
2019-05-25T10:13:33.708Z,99294.98
2019-05-25T10:16:07.573Z,99291.95
2019-05-25T10:18:41.759Z,99297.36
2019-05-25T10:21:15.143Z,99292.73
2019-05-25T10:23:49.155Z,99291.03
2019-05-25T10:26:23.463Z,99294.50
2019-05-25T10:28:57.320Z,99284.98
2019-05-25T10:31:31.116Z,99287.16
2019-05-25T10:34:04.876Z,99286.52
2019-05-25T10:36:38.570Z,99285.19
2019-05-25T10:39:13.248Z,99280.15
2019-05-25T10:41:47.234Z,99288.38
2019-05-25T10:44:20.859Z,99281.92
2019-05-25T10:46:54.944Z,99283.70
2019-05-25T10:49:29.091Z,99278.80
2019-05-25T10:52:03.209Z,99285.46
2019-05-25T10:54:37.322Z,99283.58
2019-05-25T10:57:13.349Z,99278.33
2019-05-25T10:59:52.759Z,99281.41
2019-05-25T11:02:23.138Z,99282.47
2019-05-25T11:05:16.148Z,99280.38
2019-05-25T11:07:50.059Z,99275.45
2019-05-25T11:10:23.984Z,99277.59
2019-05-25T11:12:57.369Z,99264.37
2019-05-25T11:15:31.334Z,99258.97
2019-05-25T11:18:04.909Z,99254.20
2019-05-25T11:20:39.140Z,99253.16
2019-05-25T11:23:12.406Z,99250.78
2019-05-25T11:25:46.233Z,99249.75
2019-05-25T11:28:20.471Z,99246.59
2019-05-25T11:30:54.722Z,99259.60
2019-05-25T11:33:27.994Z,99247.77
2019-05-25T11:36:01.773Z,99252.52
2019-05-25T11:38:35.992Z,99246.43
2019-05-25T11:41:09.775Z,99240.39
2019-05-25T11:43:43.455Z,99241.03
2019-05-25T11:46:17.697Z,99247.44
2019-05-25T11:48:51.908Z,99244.27
2019-05-25T11:51:26.101Z,99250.69
2019-05-25T11:54:00.339Z,99237.59
2019-05-25T11:56:34.122Z,99243.36
2019-05-25T11:59:07.413Z,99244.49
2019-05-25T12:01:41.039Z,99236.36
2019-05-25T12:04:15.149Z,99234.53
2019-05-25T12:06:49.376Z,99245.29
2019-05-25T12:09:23.206Z,99234.11
2019-05-25T12:11:56.386Z,99233.95
2019-05-25T12:14:30.565Z,99237.86
2019-05-25T12:17:04.342Z,99227.25
2019-05-25T12:19:38.606Z,99230.65
2019-05-25T12:22:12.699Z,99225.98
2019-05-25T12:24:46.961Z,99222.27
2019-05-25T12:27:20.748Z,99222.95
2019-05-25T12:29:54.768Z,99218.77
2019-05-25T12:32:28.894Z,99216.91
2019-05-25T12:35:02.958Z,99215.13
2019-05-25T12:37:36.645Z,99227.00
2019-05-25T12:40:10.518Z,99216.59
2019-05-25T12:42:45.842Z,99212.91
2019-05-25T12:45:19.762Z,99204.81
2019-05-25T12:47:52.913Z,99208.34
2019-05-25T12:50:26.304Z,99209.31
2019-05-25T12:53:00.333Z,99200.20
2019-05-25T12:55:34.153Z,99201.35
2019-05-25T12:58:08.324Z,99199.98
2019-05-25T13:00:55.238Z,99203.41
2019-05-25T13:03:16.571Z,99193.95
2019-05-25T13:05:50.251Z,99199.73
2019-05-25T13:08:24.537Z,99200.84
2019-05-25T13:10:58.623Z,99194.66
2019-05-25T13:13:35.017Z,99195.31
2019-05-25T13:16:08.732Z,99193.45
2019-05-25T13:18:42.434Z,99179.08
2019-05-25T13:21:16.639Z,99187.92
2019-05-25T13:23:49.837Z,99188.61
2019-05-25T13:26:23.904Z,99176.73
2019-05-25T13:28:58.153Z,99185.55
2019-05-25T13:31:31.346Z,99185.61
2019-05-25T13:34:06.292Z,99187.63
2019-05-25T13:36:39.967Z,99181.73
2019-05-25T13:39:13.668Z,99193.02
2019-05-25T13:41:47.684Z,99193.63
2019-05-25T13:44:22.046Z,99184.96
2019-05-25T13:46:56.122Z,99185.18
2019-05-25T13:49:29.612Z,99184.61
2019-05-25T13:52:04.321Z,99184.09
2019-05-25T13:54:38.640Z,99181.06
2019-05-25T13:57:12.684Z,99187.09
2019-05-25T13:59:46.764Z,99186.28
2019-05-25T14:02:20.877Z,99195.43
2019-05-25T14:04:54.144Z,99191.95
2019-05-25T14:07:28.336Z,99188.83
2019-05-25T14:10:02.618Z,99188.18
2019-05-25T14:12:36.226Z,99195.63
2019-05-25T14:15:09.582Z,99195.47
2019-05-25T14:17:43.761Z,99193.55
2019-05-25T14:20:18.393Z,99199.34
2019-05-25T14:22:51.969Z,99200.48
2019-05-25T14:25:25.799Z,99202.38
2019-05-25T14:27:59.311Z,99200.92
2019-05-25T14:30:33.449Z,99201.41
2019-05-25T14:33:07.110Z,99204.92
2019-05-25T14:35:41.335Z,99208.95
2019-05-25T14:38:15.108Z,99204.88
2019-05-25T14:40:49.221Z,99204.03
2019-05-25T14:43:23.046Z,99196.25
2019-05-25T14:45:57.128Z,99191.47
2019-05-25T14:48:30.966Z,99197.84
2019-05-25T14:51:04.715Z,99186.27
2019-05-25T14:53:38.041Z,99181.47
2019-05-25T14:56:12.042Z,99191.06
2019-05-25T14:58:45.931Z,99190.47
2019-05-25T15:01:20.088Z,99196.31
2019-05-25T15:03:54.463Z,99200.63
2019-05-25T15:06:28.721Z,99201.15
2019-05-25T15:09:02.537Z,99205.38
2019-05-25T15:11:36.644Z,99202.70
2019-05-25T15:14:10.731Z,99204.41
2019-05-25T15:16:45.010Z,99200.56
2019-05-25T15:19:18.993Z,99201.66
2019-05-25T15:21:52.667Z,99199.53
2019-05-25T15:24:26.505Z,99202.38
2019-05-25T15:26:59.674Z,99196.21
2019-05-25T15:29:33.392Z,99193.34
2019-05-25T15:32:19.680Z,99186.22
2019-05-25T15:34:42.263Z,99184.55
2019-05-25T15:37:15.932Z,99193.16
2019-05-25T15:39:49.842Z,99185.99
2019-05-25T15:42:23.621Z,99192.64
2019-05-25T15:44:57.642Z,99191.17
2019-05-25T15:47:31.020Z,99185.35
2019-05-25T15:50:05.452Z,99195.19
2019-05-25T15:52:39.305Z,99204.26
2019-05-25T15:55:13.720Z,99202.04
2019-05-25T15:57:47.771Z,99209.16
2019-05-25T16:00:23.824Z,99210.66
2019-05-25T16:02:57.572Z,99208.89
2019-05-25T16:05:31.103Z,99207.31
2019-05-25T16:08:05.864Z,99202.99
2019-05-25T16:10:39.953Z,99209.95
2019-05-25T16:13:13.808Z,99212.75
2019-05-25T16:15:47.495Z,99217.28
2019-05-25T16:18:20.714Z,99220.00
2019-05-25T16:20:54.702Z,99223.92
2019-05-25T16:23:28.851Z,99218.13
2019-05-25T16:26:02.420Z,99214.55
2019-05-25T16:28:36.363Z,99212.56
2019-05-25T16:31:10.001Z,99211.18
2019-05-25T16:33:43.491Z,99205.72
2019-05-25T16:36:17.684Z,99202.03
2019-05-25T16:38:51.720Z,99199.40
2019-05-25T16:41:25.773Z,99194.47
2019-05-25T16:43:59.824Z,99194.84
2019-05-25T16:46:33.456Z,99195.28
2019-05-25T16:49:06.967Z,99203.02
2019-05-25T16:51:40.628Z,99202.16
2019-05-25T16:54:14.217Z,99208.26
2019-05-25T16:56:48.079Z,99211.30
2019-05-25T16:59:22.031Z,99212.36
2019-05-25T17:01:55.985Z,99209.13
2019-05-25T17:04:29.932Z,99208.12
2019-05-25T17:07:04.289Z,99212.13
2019-05-25T17:09:37.410Z,99210.95
2019-05-25T17:12:10.677Z,99206.88
2019-05-25T17:14:45.901Z,99207.02
2019-05-25T17:17:19.436Z,99211.81
2019-05-25T17:19:53.353Z,99210.88
2019-05-25T17:22:27.502Z,99216.30
2019-05-25T17:25:01.459Z,99212.03
2019-05-25T17:27:34.559Z,99209.75
2019-05-25T17:30:07.880Z,99212.15
2019-05-25T17:32:40.645Z,99218.37
2019-05-25T17:35:13.269Z,99218.11
2019-05-25T17:37:46.608Z,99215.87
2019-05-25T17:40:19.131Z,99214.75
2019-05-25T17:42:52.587Z,99214.59
2019-05-25T17:45:25.997Z,99209.81
2019-05-25T17:47:59.423Z,99209.31
2019-05-25T17:50:31.738Z,99213.99
2019-05-25T17:53:05.495Z,99214.02
2019-05-25T17:55:38.821Z,99220.34
2019-05-25T17:58:11.631Z,99216.13
2019-05-25T18:00:47.916Z,99218.05
2019-05-25T18:03:21.254Z,99218.31
2019-05-25T18:05:53.921Z,99218.19
2019-05-25T18:08:26.850Z,99215.94
2019-05-25T18:10:59.396Z,99223.09
2019-05-25T18:13:32.837Z,99229.16
2019-05-25T18:16:05.291Z,99232.41
2019-05-25T18:18:38.697Z,99234.13
2019-05-25T18:21:11.368Z,99239.09
2019-05-25T18:23:44.229Z,99235.98
2019-05-25T18:26:17.910Z,99239.66
2019-05-25T18:28:51.827Z,99241.47
2019-05-25T18:31:25.031Z,99243.92
2019-05-25T18:33:59.087Z,99246.80
2019-05-25T18:36:32.935Z,99247.95
2019-05-25T18:39:08.818Z,99247.27
2019-05-25T18:41:42.763Z,99255.25
2019-05-25T18:44:16.591Z,99262.97
2019-05-25T18:46:50.642Z,99264.95
2019-05-25T18:49:24.710Z,99264.59
2019-05-25T18:51:58.010Z,99270.59
2019-05-25T18:54:31.981Z,99271.57
2019-05-25T18:57:09.318Z,99276.67
2019-05-25T18:59:41.647Z,99283.92
2019-05-25T19:02:15.851Z,99286.69
2019-05-25T19:04:59.002Z,99286.78
2019-05-25T19:07:24.877Z,99286.58
2019-05-25T19:09:58.419Z,99290.73
2019-05-25T19:12:32.720Z,99292.78
2019-05-25T19:15:06.286Z,99288.80
2019-05-25T19:17:40.334Z,99289.55
2019-05-25T19:20:20.785Z,99289.23
2019-05-25T19:22:50.351Z,99290.38
2019-05-25T19:25:24.690Z,99290.31
2019-05-25T19:27:57.619Z,99292.60
2019-05-25T19:30:31.287Z,99296.78
2019-05-25T19:33:04.094Z,99296.21
2019-05-25T19:35:37.083Z,99304.28
2019-05-25T19:38:09.917Z,99306.98
2019-05-25T19:40:44.360Z,99305.04
2019-05-25T19:43:16.936Z,99309.92
2019-05-25T19:45:49.835Z,99314.53
2019-05-25T19:48:22.328Z,99313.92
2019-05-25T19:50:56.282Z,99316.50
2019-05-25T19:53:29.908Z,99320.86
2019-05-25T19:56:02.715Z,99318.03
2019-05-25T19:58:35.507Z,99317.93
2019-05-25T20:01:08.626Z,99315.83
2019-05-25T20:03:42.027Z,99315.34
2019-05-25T20:06:15.100Z,99316.90
2019-05-25T20:08:51.580Z,99320.10
2019-05-25T20:11:24.336Z,99320.75
2019-05-25T20:13:57.760Z,99326.12
2019-05-25T20:16:30.867Z,99329.05
2019-05-25T20:19:03.628Z,99332.28
2019-05-25T20:21:37.674Z,99332.80
2019-05-25T20:24:10.259Z,99339.69
2019-05-25T20:26:43.299Z,99345.41
2019-05-25T20:29:16.071Z,99349.98
2019-05-25T20:31:48.811Z,99346.98
2019-05-25T20:34:22.301Z,99352.67
2019-05-25T20:36:54.881Z,99354.31
2019-05-25T20:39:28.174Z,99353.93
2019-05-25T20:42:01.457Z,99359.56
2019-05-25T20:44:34.284Z,99360.99
2019-05-25T20:47:06.878Z,99361.47
2019-05-25T20:49:40.309Z,99367.00
2019-05-25T20:52:13.368Z,99366.88
2019-05-25T20:54:45.820Z,99364.08
2019-05-25T20:57:19.325Z,99373.84
2019-05-25T20:59:52.403Z,99370.44
2019-05-25T21:02:25.459Z,99368.84
2019-05-25T21:04:59.212Z,99367.02
2019-05-25T21:07:32.532Z,99375.16
2019-05-25T21:10:06.330Z,99376.95
2019-05-25T21:12:39.707Z,99376.93
2019-05-25T21:15:13.220Z,99384.41
2019-05-25T21:17:46.040Z,99386.46
2019-05-25T21:20:20.272Z,99381.59
2019-05-25T21:22:54.139Z,99386.31
2019-05-25T21:25:27.538Z,99391.73
2019-05-25T21:28:00.899Z,99390.39
2019-05-25T21:30:33.524Z,99392.80
2019-05-25T21:33:07.431Z,99393.45
2019-05-25T21:35:39.868Z,99398.41
2019-05-25T21:38:11.810Z,99400.24
2019-05-25T21:40:44.715Z,99403.86
2019-05-25T21:43:16.646Z,99409.78
2019-05-25T21:45:49.165Z,99413.94
2019-05-25T21:48:23.161Z,99414.09
2019-05-25T21:50:56.835Z,99414.77
2019-05-25T21:53:31.597Z,99416.98
2019-05-25T21:56:05.295Z,99413.14
2019-05-25T21:58:39.087Z,99417.11
2019-05-25T22:01:12.403Z,99416.39
2019-05-25T22:03:46.354Z,99422.78
2019-05-25T22:06:24.264Z,99421.81
2019-05-25T22:08:55.956Z,99425.31
2019-05-25T22:11:29.939Z,99429.86
2019-05-25T22:14:03.587Z,99428.80
2019-05-25T22:16:37.552Z,99425.78
2019-05-25T22:19:11.170Z,99428.23
2019-05-25T22:21:46.168Z,99428.45
2019-05-25T22:24:19.435Z,99429.78
2019-05-25T22:26:53.029Z,99426.56
2019-05-25T22:29:26.695Z,99420.13
2019-05-25T22:32:00.653Z,99422.13
2019-05-25T22:34:34.708Z,99427.13
2019-05-25T22:37:08.875Z,99430.16
2019-05-25T22:39:42.744Z,99435.03
2019-05-25T22:42:16.883Z,99438.22
2019-05-25T22:44:50.998Z,99438.53
2019-05-25T22:47:25.140Z,99436.86
2019-05-25T22:49:58.439Z,99436.23
2019-05-25T22:52:32.124Z,99437.00
2019-05-25T22:55:05.825Z,99435.24
2019-05-25T22:57:39.953Z,99430.34
2019-05-25T23:00:13.849Z,99434.83
2019-05-25T23:02:48.081Z,99431.06
2019-05-25T23:05:21.874Z,99426.71
2019-05-25T23:07:55.566Z,99426.56
2019-05-25T23:10:28.775Z,99429.56
2019-05-25T23:13:03.236Z,99434.25
2019-05-25T23:15:37.340Z,99438.95
2019-05-25T23:18:11.644Z,99441.65
2019-05-25T23:20:45.837Z,99440.59
2019-05-25T23:23:19.885Z,99440.64
2019-05-25T23:25:54.182Z,99443.13
2019-05-25T23:28:28.139Z,99443.08
2019-05-25T23:31:01.081Z,99444.86
2019-05-25T23:33:34.351Z,99441.56
2019-05-25T23:36:08.436Z,99443.33
2019-05-25T23:38:42.068Z,99443.70
2019-05-25T23:41:15.737Z,99448.82
2019-05-25T23:43:50.086Z,99452.23
2019-05-25T23:46:24.223Z,99452.61
2019-05-25T23:48:57.897Z,99450.97
2019-05-25T23:51:32.046Z,99455.85
2019-05-25T23:54:06.102Z,99453.89
2019-05-25T23:56:40.342Z,99455.33
2019-05-25T23:59:14.104Z,99451.77
